Time;durP1;ratioP1;P1;durP2;ratioP2;P2;SDS_P1;SDS_P2;PMS_P1;PMS_P2;Temp;Humidity;BMP_temperature;BMP_pressure;BME280_temperature;BME280_humidity;BME280_pressure;Samples;Min_cycle;Max_cycle;Signal;HPM_P1;HPM_P2
2022/06/24 00:02:48;;;;;;;15.13;5.60;;;;;;;15.43;91.98;95744.38;10355915;28;97808;-71
2022/06/24 00:07:52;;;;;;;8.63;5.03;;;;;;;15.44;91.68;95736.31;10362768;28;100841;-71
2022/06/24 00:12:57;;;;;;;8.83;4.90;;;;;;;15.43;91.83;95728.59;10362794;28;97155;-71
2022/06/24 00:18:12;;;;;;;10.90;4.93;;;;;;;15.45;92.01;95730.00;10360624;28;98328;-71
2022/06/24 00:23:17;;;;;;;11.23;4.60;;;;;;;15.51;92.35;95720.53;10359368;28;97559;-72
2022/06/24 00:28:25;;;;;;;10.10;4.75;;;;;;;15.65;92.33;95710.94;10368358;28;96884;-71
2022/06/24 00:33:33;;;;;;;13.27;5.22;;;;;;;15.59;92.38;95717.78;10363851;28;97542;-71
2022/06/24 00:38:38;;;;;;;10.98;4.63;;;;;;;15.57;92.82;95711.06;10352516;28;98743;-71
2022/06/24 00:43:54;;;;;;;13.50;4.38;;;;;;;15.68;92.35;95713.19;10361256;28;100228;-72
2022/06/24 00:48:59;;;;;;;11.05;4.68;;;;;;;15.77;92.34;95714.69;10352908;28;97028;-71
2022/06/24 00:54:08;;;;;;;13.02;4.60;;;;;;;15.77;91.66;95714.69;10359834;28;98329;-71
2022/06/24 00:59:13;;;;;;;15.85;4.70;;;;;;;15.83;91.78;95716.53;10349583;28;98353;-71
2022/06/24 01:04:16;;;;;;;10.90;4.30;;;;;;;15.92;92.10;95716.41;10361436;28;98524;-71
2022/06/24 01:09:20;;;;;;;15.38;5.22;;;;;;;15.86;91.79;95721.44;10354458;28;99237;-71
2022/06/24 01:14:24;;;;;;;17.15;4.78;;;;;;;15.88;91.73;95711.50;10364250;28;97017;-71
2022/06/24 01:19:27;;;;;;;12.70;4.90;;;;;;;15.87;91.63;95709.06;10348062;28;97050;-71
2022/06/24 01:24:31;;;;;;;14.07;5.20;;;;;;;15.87;92.12;95699.34;10347310;28;97015;-71
2022/06/24 01:29:34;;;;;;;20.83;5.57;;;;;;;15.92;91.81;95690.06;10362309;28;97667;-71
2022/06/24 01:34:37;;;;;;;13.63;5.20;;;;;;;16.01;92.35;95694.16;10359461;28;96768;-72
2022/06/24 01:39:42;;;;;;;16.02;4.82;;;;;;;16.02;92.05;95679.97;10348227;28;97194;-72
2022/06/24 01:44:45;;;;;;;12.27;4.80;;;;;;;16.04;91.66;95675.31;10356901;28;100226;-71
2022/06/24 01:49:47;;;;;;;12.90;4.97;;;;;;;16.08;91.76;95668.63;10365381;28;98712;-71
2022/06/24 01:54:52;;;;;;;14.95;5.00;;;;;;;16.11;91.77;95657.72;10359347;28;96894;-71
2022/06/24 01:59:58;;;;;;;16.20;5.15;;;;;;;16.19;91.97;95643.53;10357937;28;97458;-71
2022/06/24 02:05:00;;;;;;;14.35;4.68;;;;;;;16.18;91.72;95632.19;10352497;28;97492;-71
2022/06/24 02:15:26;;;;;;;13.95;4.70;;;;;;;16.05;91.82;95616.34;10362036;28;97844;-71
2022/06/24 02:20:29;;;;;;;18.13;4.93;;;;;;;15.97;91.80;95612.06;10364813;28;97866;-72
2022/06/24 02:25:33;;;;;;;11.93;5.10;;;;;;;15.95;91.96;95621.19;10365188;28;96896;-71
2022/06/24 02:30:37;;;;;;;12.70;5.05;;;;;;;15.99;91.63;95615.31;10361232;28;98099;-72
2022/06/24 02:35:42;;;;;;;14.70;5.60;;;;;;;15.96;92.21;95609.63;10361564;28;96973;-71
2022/06/24 02:40:48;;;;;;;16.88;5.60;;;;;;;15.90;92.58;95620.97;10353845;28;97141;-71
2022/06/24 02:45:54;;;;;;;15.50;6.05;;;;;;;15.96;92.25;95634.13;10365741;28;96857;-71
2022/06/24 02:50:58;;;;;;;15.23;4.95;;;;;;;16.05;92.35;95626.88;10354434;28;99926;-71
2022/06/24 02:56:05;;;;;;;18.52;5.30;;;;;;;16.08;92.02;95631.75;10363641;28;99459;-72
2022/06/24 03:01:08;;;;;;;11.50;5.20;;;;;;;16.07;92.18;95619.59;10361927;28;98237;-71
2022/06/24 03:06:11;;;;;;;12.65;5.35;;;;;;;16.17;91.98;95629.75;10356010;28;97819;-71
2022/06/24 03:11:16;;;;;;;20.48;5.25;;;;;;;16.27;91.58;95634.66;10354139;28;97066;-71
2022/06/24 03:16:18;;;;;;;;;;;;;;;16.34;91.55;95640.75;10365621;28;96916;-71
2022/06/24 03:21:21;;;;;;;15.15;5.50;;;;;;;16.40;91.34;95630.25;10360309;28;98519;-72
2022/06/24 03:26:25;;;;;;;13.00;4.88;;;;;;;16.44;91.10;95636.72;10356043;28;96992;-71
2022/06/24 03:31:28;;;;;;;15.27;5.20;;;;;;;16.43;91.10;95618.47;10359597;28;98153;-71
2022/06/24 03:36:31;;;;;;;13.55;5.20;;;;;;;16.36;90.79;95623.75;10358271;28;97167;-71
2022/06/24 03:41:35;;;;;;;14.45;5.00;;;;;;;16.36;90.73;95615.00;10359939;28;96961;-71
2022/06/24 03:46:38;;;;;;;15.77;5.10;;;;;;;16.34;91.33;95609.13;10366565;28;96914;-71
2022/06/24 03:51:41;;;;;;;13.15;5.15;;;;;;;16.34;91.46;95595.94;10366419;28;98679;-72
2022/06/24 03:56:45;;;;;;;12.77;4.75;;;;;;;16.39;91.34;95601.44;10355955;28;97828;-71
2022/06/24 04:01:48;;;;;;;11.82;5.35;;;;;;;16.40;91.54;95601.25;10353529;28;98396;-71
2022/06/24 04:06:51;;;;;;;12.00;4.88;;;;;;;16.42;91.41;95596.56;10351631;28;97961;-71
2022/06/24 04:11:55;;;;;;;14.98;4.90;;;;;;;16.48;91.22;95597.59;10363342;28;97111;-71
2022/06/24 04:16:58;;;;;;;10.60;4.88;;;;;;;16.48;91.77;95588.88;10361241;28;97227;-71
2022/06/24 04:22:00;;;;;;;15.02;5.20;;;;;;;16.51;91.41;95585.84;10352812;28;97540;-71
2022/06/24 04:27:05;;;;;;;19.77;5.28;;;;;;;16.52;91.41;95584.81;10356683;28;96916;-71
2022/06/24 04:32:09;;;;;;;13.85;4.95;;;;;;;16.52;91.50;95596.19;10360980;28;97864;-71
2022/06/24 04:37:12;;;;;;;13.20;5.00;;;;;;;16.62;91.83;95601.91;10357305;28;96965;-71
2022/06/24 04:42:19;;;;;;;15.18;5.10;;;;;;;16.70;91.11;95586.88;10364161;28;98471;-71
2022/06/24 04:47:22;;;;;;;17.52;5.18;;;;;;;16.73;91.50;95591.78;10356434;28;97314;-71
2022/06/24 04:52:25;;;;;;;11.87;4.97;;;;;;;16.77;91.57;95599.09;10369927;28;97768;-71
2022/06/24 04:57:30;;;;;;;10.88;4.70;;;;;;;16.80;91.70;95597.88;10354172;28;97018;-71
2022/06/24 05:02:34;;;;;;;12.73;4.68;;;;;;;16.91;91.41;95594.63;10367332;28;96953;-71
2022/06/24 05:07:38;;;;;;;12.82;5.25;;;;;;;16.94;91.50;95588.94;10348952;28;98754;-71
2022/06/24 05:12:43;;;;;;;13.33;5.10;;;;;;;16.99;91.10;95585.72;10360342;28;96919;-71
2022/06/24 05:17:46;;;;;;;14.90;5.50;;;;;;;16.94;91.14;95575.75;10353089;28;97193;-71
2022/06/24 05:22:48;;;;;;;15.00;4.72;;;;;;;16.94;91.44;95578.41;10359121;28;97281;-71
2022/06/24 05:27:53;;;;;;;13.13;4.60;;;;;;;16.99;91.13;95585.72;10359310;28;97159;-71
2022/06/24 05:32:55;;;;;;;10.73;4.35;;;;;;;17.07;90.86;95587.31;10358634;28;96828;-72
2022/06/24 05:37:59;;;;;;;12.13;4.43;;;;;;;17.18;90.68;95592.78;10359661;28;98300;-71
2022/06/24 05:43:03;;;;;;;13.85;4.57;;;;;;;17.26;90.91;95607.59;10351270;28;96976;-71
2022/06/24 05:48:07;;;;;;;9.45;3.85;;;;;;;17.25;90.85;95606.00;10361350;28;97124;-71
2022/06/24 05:58:31;;;;;;;10.00;4.82;;;;;;;17.35;90.87;95632.78;10359119;28;96956;-72
2022/06/24 06:03:34;;;;;;;10.15;4.75;;;;;;;17.37;90.90;95629.94;10367092;28;97658;-72
2022/06/24 06:08:39;;;;;;;9.93;4.85;;;;;;;17.35;91.02;95653.91;10357266;28;96909;-71
2022/06/24 06:13:45;;;;;;;15.55;5.50;;;;;;;17.23;91.01;95636.22;10354252;28;96892;-72
2022/06/24 06:18:48;;;;;;;13.73;5.60;;;;;;;17.12;91.85;95641.09;10360976;28;97934;-71
2022/06/24 06:23:52;;;;;;;15.47;5.17;;;;;;;17.05;91.94;95640.28;10364702;28;97810;-71
2022/06/24 06:28:56;;;;;;;13.38;5.97;;;;;;;17.02;91.98;95642.53;10365647;28;97796;-71
2022/06/24 06:33:59;;;;;;;16.45;7.18;;;;;;;17.00;92.53;95638.28;10372760;28;97507;-71
2022/06/24 06:39:02;;;;;;;11.38;5.72;;;;;;;17.02;92.27;95631.97;10371007;28;97094;-71
2022/06/24 06:44:07;;;;;;;10.43;5.57;;;;;;;17.03;92.04;95604.59;10369278;28;97864;-70
2022/06/24 06:49:10;;;;;;;;;;;;;;;17.09;92.66;95596.66;10368680;28;97013;-72
2022/06/24 06:54:13;;;;;;;11.27;5.60;;;;;;;17.28;92.14;95589.72;10365310;28;98362;-71
2022/06/24 06:59:17;;;;;;;16.83;6.68;;;;;;;17.44;92.33;95562.09;10363893;28;96945;-71
2022/06/24 07:04:20;;;;;;;13.40;5.15;;;;;;;17.58;92.42;95541.75;10351379;28;96938;-70
2022/06/24 07:09:23;;;;;;;12.80;5.85;;;;;;;17.72;92.37;95516.09;10374019;28;96893;-71
2022/06/24 07:14:28;;;;;;;16.02;6.45;;;;;;;17.86;92.66;95519.50;10358454;28;96971;-70
2022/06/24 07:19:30;;;;;;;13.68;5.53;;;;;;;17.94;92.35;95535.09;10345919;28;96874;-70
2022/06/24 07:24:33;;;;;;;14.77;5.82;;;;;;;18.04;92.55;95535.44;10349674;28;96938;-70
2022/06/24 07:29:38;;;;;;;17.60;5.75;;;;;;;18.11;91.92;95541.50;10357821;28;97161;-70
2022/06/24 07:34:42;;;;;;;;;;;;;;;18.17;91.95;95552.25;10344957;28;96783;-71
2022/06/24 07:39:44;;;;;;;12.02;5.22;;;;;;;18.13;91.82;95544.78;10373734;28;96872;-70
2022/06/24 07:44:48;;;;;;;15.60;5.43;;;;;;;18.06;90.37;95543.97;10363494;28;97156;-71
2022/06/24 07:49:51;;;;;;;14.52;4.95;;;;;;;17.92;91.39;95537.94;10359580;28;96973;-71
2022/06/24 07:56:56;;;;;;;12.68;5.13;;;;;;;17.82;90.99;95536.75;10370160;28;96843;-71
2022/06/24 08:00:19;;;;;;;10.43;5.00;;;;;;;17.73;91.28;95555.50;10373975;28;96763;-71
2022/06/24 08:05:23;;;;;;;14.23;5.28;;;;;;;17.72;91.41;95556.50;10374502;28;96743;-71
2022/06/24 08:10:26;;;;;;;12.00;4.43;;;;;;;17.75;90.95;95553.44;10370846;28;96861;-71
2022/06/24 08:15:30;;;;;;;11.73;5.03;;;;;;;17.74;91.01;95554.47;10372045;28;97539;-71
2022/06/24 08:20:33;;;;;;;;;;;;;;;17.68;91.76;95539.47;10371053;28;97014;-70
2022/06/24 08:25:36;;;;;;;18.60;6.18;;;;;;;17.69;90.84;95533.16;10370933;28;96905;-70
2022/06/24 08:30:40;;;;;;;10.98;4.68;;;;;;;17.75;91.67;95545.53;10372207;28;97209;-71
2022/06/24 08:35:43;;;;;;;12.43;4.82;;;;;;;17.94;91.32;95550.94;10367905;28;96816;-71
2022/06/24 08:40:48;;;;;;;8.13;4.05;;;;;;;18.01;91.04;95549.09;10367406;28;96796;-71
2022/06/24 08:45:53;;;;;;;8.63;3.67;;;;;;;17.96;90.38;95526.97;10371019;28;101393;-71
2022/06/24 08:50:57;;;;;;;8.30;3.63;;;;;;;18.00;90.96;95513.13;10367663;28;98632;-71
2022/06/24 08:56:00;;;;;;;9.35;3.35;;;;;;;17.90;90.18;95507.47;10362684;28;97112;-71
2022/06/24 09:01:04;;;;;;;9.57;3.33;;;;;;;17.72;90.27;95489.66;10371088;28;96788;-70
2022/06/24 09:06:12;;;;;;;8.00;3.33;;;;;;;17.74;91.29;95511.41;10369720;28;97160;-71
2022/06/24 09:11:15;;;;;;;8.88;3.20;;;;;;;17.76;90.30;95533.91;10369662;28;97231;-70
2022/06/24 09:16:20;;;;;;;8.55;3.63;;;;;;;17.65;90.60;95579.50;10372884;28;96782;-70
2022/06/24 09:21:25;;;;;;;10.38;4.15;;;;;;;17.46;90.38;95548.69;10373290;28;96942;-70
2022/06/24 09:26:31;;;;;;;8.25;3.78;;;;;;;17.38;91.01;95569.00;10375284;28;96928;-71
2022/06/24 09:31:36;;;;;;;9.35;3.80;;;;;;;17.34;91.06;95585.47;10379587;28;97715;-70
2022/06/24 09:36:42;;;;;;;12.05;3.60;;;;;;;17.24;91.00;95572.69;10374978;28;96982;-70
2022/06/24 09:41:46;;;;;;;12.35;4.05;;;;;;;17.18;90.97;95569.03;10383646;28;97104;-71
2022/06/24 09:47:02;;;;;;;9.82;3.40;;;;;;;17.27;91.06;95611.88;10364341;28;97837;-71
2022/06/24 09:52:08;;;;;;;6.38;2.83;;;;;;;17.23;90.44;95623.88;10375036;28;97816;-70
2022/06/24 09:57:12;;;;;;;5.30;2.50;;;;;;;17.07;90.85;95669.13;10380689;28;98035;-70
2022/06/24 10:02:20;;;;;;;4.95;2.33;;;;;;;16.78;90.55;95668.50;10375420;28;97175;-70
2022/06/24 10:07:25;;;;;;;4.88;2.30;;;;;;;16.64;90.70;95678.19;10368801;28;97212;-71
2022/06/24 10:12:40;;;;;;;4.55;1.88;;;;;;;16.50;90.15;95706.34;10376574;28;96923;-70
2022/06/24 10:17:47;;;;;;;6.25;2.45;;;;;;;16.27;90.47;95692.66;10379344;28;97141;-70
2022/06/24 10:22:50;;;;;;;4.03;1.80;;;;;;;16.10;90.56;95687.69;10372590;28;96993;-70
2022/06/24 10:28:07;;;;;;;4.07;1.83;;;;;;;16.09;90.53;95691.34;10376499;28;97329;-70
2022/06/24 10:33:15;;;;;;;6.75;2.22;;;;;;;16.07;90.81;95693.38;10375298;28;97193;-71
2022/06/24 10:38:18;;;;;;;2.85;1.25;;;;;;;16.21;90.56;95704.78;10376223;28;98752;-71
2022/06/24 10:43:35;;;;;;;4.13;1.50;;;;;;;16.43;89.85;95702.84;10378498;27;96711;-71
2022/06/24 10:48:57;;;;;;;2.17;1.05;;;;;;;16.48;88.20;95692.50;10376008;28;96856;-70
2022/06/24 10:54:12;;;;;;;4.47;1.30;;;;;;;16.56;87.70;95697.63;10376751;28;97220;-70
2022/06/24 10:59:19;;;;;;;4.82;1.33;;;;;;;16.69;87.35;95685.47;10370323;28;96997;-70
2022/06/24 11:04:28;;;;;;;2.85;1.48;;;;;;;16.68;88.00;95652.22;10373754;27;96837;-71
2022/06/24 11:09:31;;;;;;;1.90;0.70;;;;;;;16.74;86.86;95683.03;10370782;28;96976;-71
2022/06/24 11:14:35;;;;;;;0.20;0.20;;;;;;;16.72;83.07;95696.44;10372464;28;99743;-71
2022/06/24 11:19:42;;;;;;;0.52;0.32;;;;;;;16.79;82.76;95728.94;10365929;28;97085;-70
2022/06/24 11:24:48;;;;;;;1.38;0.55;;;;;;;16.81;83.20;95741.94;10374559;28;97187;-71
2022/06/24 11:29:54;;;;;;;1.17;0.63;;;;;;;17.14;85.11;95757.03;10378183;28;96985;-70
2022/06/24 11:34:58;;;;;;;1.77;0.60;;;;;;;17.58;84.23;95779.44;10372282;28;96912;-71
2022/06/24 11:40:01;;;;;;;1.33;0.60;;;;;;;17.85;84.80;95793.47;10371485;28;96940;-71
2022/06/24 11:45:05;;;;;;;0.88;0.63;;;;;;;17.75;83.39;95800.94;10366240;28;96901;-71
2022/06/24 11:50:19;;;;;;;0.90;0.50;;;;;;;17.62;83.46;95809.69;10353659;28;98526;-71
2022/06/24 11:55:30;;;;;;;2.45;0.77;;;;;;;17.54;82.58;95800.16;10371465;28;96848;-71
2022/06/24 12:00:35;;;;;;;1.30;0.60;;;;;;;17.52;83.34;95774.94;10371640;28;99599;-71
2022/06/24 12:05:41;;;;;;;;;;;;;;;17.72;84.97;95770.47;10376483;28;96710;-68
2022/06/24 12:10:50;;;;;;;0.88;0.70;;;;;;;17.87;83.89;95762.38;10354433;28;96859;-71
2022/06/24 12:15:54;;;;;;;0.50;0.50;;;;;;;18.03;82.76;95768.22;10370501;28;99527;-71
2022/06/24 12:21:03;;;;;;;1.13;0.70;;;;;;;18.06;81.62;95779.19;10364495;28;97076;-71
2022/06/24 12:26:13;;;;;;;0.88;0.55;;;;;;;18.07;81.78;95809.91;10361155;28;96772;-70
2022/06/24 12:31:16;;;;;;;2.60;0.70;;;;;;;17.90;81.42;95814.00;10361022;28;96892;-70
2022/06/24 12:36:22;;;;;;;0.50;0.45;;;;;;;17.79;81.28;95811.91;10356302;28;96851;-71
2022/06/24 12:41:25;;;;;;;0.82;0.50;;;;;;;17.83;82.29;95806.03;10351304;28;96761;-71
2022/06/24 12:50:34;;;;;;;2.03;0.60;;;;;;;18.05;82.19;95811.16;10349608;28;96780;-70
2022/06/24 12:52:04;;;;;;;0.70;0.50;;;;;;;18.25;81.83;95805.81;10359353;28;96907;-71
2022/06/24 12:57:07;;;;;;;0.95;0.50;;;;;;;18.26;80.34;95796.88;10377635;28;97084;-70
2022/06/24 13:02:11;;;;;;;0.68;0.40;;;;;;;18.32;80.90;95801.31;10364643;28;98617;-71
2022/06/24 13:07:15;;;;;;;1.27;0.70;;;;;;;18.29;80.37;95792.00;10369315;28;96997;-71
2022/06/24 13:12:19;;;;;;;0.73;0.40;;;;;;;18.38;80.65;95783.84;10370885;28;97909;-70
2022/06/24 13:17:21;;;;;;;0.30;0.30;;;;;;;18.60;80.02;95776.41;10358985;28;96776;-71
2022/06/24 13:22:26;;;;;;;1.10;0.40;;;;;;;18.70;80.11;95782.09;10369490;28;97072;-71
2022/06/24 13:27:29;;;;;;;4.45;0.60;;;;;;;18.89;79.23;95796.28;10373674;28;96940;-71
2022/06/24 13:32:32;;;;;;;1.27;0.50;;;;;;;18.50;79.46;95782.97;10374004;28;97213;-70
2022/06/24 13:37:37;;;;;;;1.43;0.33;;;;;;;18.21;79.82;95778.97;10368811;28;96887;-70
2022/06/24 13:42:40;;;;;;;0.93;0.50;;;;;;;18.14;80.28;95788.75;10368681;28;97024;-71
2022/06/24 13:47:43;;;;;;;1.60;0.40;;;;;;;18.23;78.89;95781.44;10374528;28;96923;-71
2022/06/24 13:52:48;;;;;;;1.45;0.30;;;;;;;18.36;78.58;95773.47;10349707;28;96936;-70
2022/06/24 13:57:51;;;;;;;1.50;0.50;;;;;;;18.39;79.33;95753.72;10370583;28;97295;-70
2022/06/24 14:02:54;;;;;;;0.95;0.28;;;;;;;18.83;80.48;95755.56;10364416;28;97153;-70
2022/06/24 14:07:58;;;;;;;1.65;0.40;;;;;;;19.67;78.03;95759.94;10356103;28;96958;-70
2022/06/24 14:13:02;;;;;;;0.45;0.30;;;;;;;20.20;75.42;95759.50;10373525;28;96732;-70
2022/06/24 14:18:06;;;;;;;1.08;0.30;;;;;;;21.06;74.33;95756.84;10377932;28;96727;-71
2022/06/24 14:28:32;;;;;;;0.82;0.30;;;;;;;24.19;64.27;95733.09;10374471;28;96856;-71
2022/06/24 14:33:35;;;;;;;0.20;0.20;;;;;;;25.95;59.34;95715.94;10370820;28;96987;-71
2022/06/24 14:44:00;;;;;;;0.27;0.17;;;;;;;29.43;51.26;95740.38;10363293;28;97914;-71
2022/06/24 14:49:04;;;;;;;0.45;0.22;;;;;;;30.19;49.09;95746.25;10376594;28;96803;-71
2022/06/24 14:54:29;;;;;;;0.90;0.30;;;;;;;31.40;46.49;95746.97;10373959;28;97090;-71
2022/06/24 14:59:32;;;;;;;0.20;0.10;;;;;;;31.92;45.34;95752.38;10376789;28;96865;-71
2022/06/24 15:04:35;;;;;;;0.20;0.10;;;;;;;33.06;39.94;95758.09;10358043;28;96927;-71
2022/06/24 15:09:39;;;;;;;0.28;0.10;;;;;;;33.58;37.40;95759.66;10367870;28;96827;-71
2022/06/24 15:14:42;;;;;;;0.65;0.30;;;;;;;32.41;38.66;95758.28;10377886;28;96835;-71
2022/06/24 15:19:46;;;;;;;0.32;0.30;;;;;;;31.21;39.32;95761.25;10373882;28;97109;-72
2022/06/24 15:24:51;;;;;;;0.85;0.20;;;;;;;29.40;42.06;95767.84;10374872;28;96938;-71
2022/06/24 15:29:54;;;;;;;0.10;0.10;;;;;;;27.98;43.74;95760.81;10376465;28;97023;-73
2022/06/24 15:34:58;;;;;;;0.80;0.25;;;;;;;26.49;45.35;95760.44;10368859;28;96800;-72
2022/06/24 15:40:03;;;;;;;0.20;0.10;;;;;;;27.45;44.58;95753.78;10373821;28;96972;-71
2022/06/24 15:45:07;;;;;;;1.88;0.20;;;;;;;29.63;41.58;95745.66;10372964;28;97040;-72
2022/06/24 15:50:10;;;;;;;0.52;0.20;;;;;;;32.25;37.89;95745.06;10374545;28;97332;-72
2022/06/24 15:55:15;;;;;;;0.88;0.10;;;;;;;33.81;33.50;95755.88;10372274;28;98050;-71
2022/06/24 16:00:18;;;;;;;0.57;0.20;;;;;;;33.83;35.50;95745.53;10371836;28;96868;-71
2022/06/24 16:05:21;;;;;;;0.75;0.13;;;;;;;31.00;37.20;95746.44;10365439;28;97643;-71
2022/06/24 16:10:26;;;;;;;0.47;0.22;;;;;;;28.57;40.43;95743.25;10372667;28;97167;-71
2022/06/24 16:15:29;;;;;;;0.10;0.10;;;;;;;26.57;43.40;95759.94;10366949;28;97679;-72
2022/06/24 16:20:32;;;;;;;0.20;0.15;;;;;;;25.16;45.38;95758.31;10363330;28;97522;-71
2022/06/24 16:30:58;;;;;;;1.70;0.30;;;;;;;23.39;49.92;95741.19;10356141;28;98876;-71
2022/06/24 16:36:04;;;;;;;0.35;0.25;;;;;;;23.45;51.24;95742.09;10361635;28;97916;-72
2022/06/24 16:41:09;;;;;;;0.20;0.20;;;;;;;26.15;45.79;95742.00;10356794;28;98810;-71
2022/06/24 16:46:12;;;;;;;0.55;0.20;;;;;;;28.78;41.15;95735.91;10355393;28;98047;-71
2022/06/24 16:51:16;;;;;;;0.10;0.10;;;;;;;30.58;37.54;95738.03;10362170;28;97033;-72
2022/06/24 16:56:21;;;;;;;0.32;0.20;;;;;;;31.57;35.60;95747.25;10360290;28;98042;-71
2022/06/24 17:01:24;;;;;;;0.25;0.17;;;;;;;32.05;36.08;95742.72;10357311;28;96978;-71
2022/06/24 17:06:28;;;;;;;0.82;0.30;;;;;;;32.11;35.80;95742.34;10348096;28;98563;-72
2022/06/24 17:11:33;;;;;;;0.10;0.10;;;;;;;32.46;36.29;95736.56;10358434;28;97119;-72
2022/06/24 17:16:36;;;;;;;0.70;0.20;;;;;;;31.86;35.45;95735.44;10359922;28;97882;-72
2022/06/24 17:21:39;;;;;;;0.20;0.20;;;;;;;31.02;36.10;95741.53;10372617;28;99165;-72
2022/06/24 17:26:43;;;;;;;0.32;0.28;;;;;;;30.97;36.58;95742.41;10360113;28;96679;-72
2022/06/24 17:31:46;;;;;;;0.40;0.30;;;;;;;30.45;37.55;95744.91;10357082;28;97084;-72
2022/06/24 17:36:49;;;;;;;0.63;0.20;;;;;;;29.87;38.44;95737.66;10366426;28;98021;-71
2022/06/24 17:41:54;;;;;;;3.08;0.60;;;;;;;28.55;39.75;95754.25;10364827;28;97466;-72
2022/06/24 17:46:59;;;;;;;0.40;0.20;;;;;;;26.64;43.28;95765.88;10362271;28;98248;-72
2022/06/24 17:52:02;;;;;;;0.20;0.10;;;;;;;25.46;45.01;95764.19;10371621;28;96860;-72
2022/06/24 17:57:06;;;;;;;0.57;0.30;;;;;;;25.18;45.10;95763.41;10356979;28;96894;-71
2022/06/24 18:02:10;;;;;;;0.77;0.38;;;;;;;25.00;46.44;95768.03;10359894;28;97113;-71
2022/06/24 18:07:13;;;;;;;0.77;0.38;;;;;;;25.10;45.79;95764.66;10356483;28;98244;-71
2022/06/24 18:12:18;;;;;;;1.30;0.30;;;;;;;25.73;44.93;95753.50;10353219;28;98749;-71
2022/06/24 18:17:21;;;;;;;1.55;0.28;;;;;;;24.48;47.62;95769.25;10359237;28;97030;-71
2022/06/24 18:22:23;;;;;;;0.97;0.20;;;;;;;23.17;50.02;95759.72;10359775;28;98579;-71
2022/06/24 18:27:27;;;;;;;0.43;0.20;;;;;;;22.12;51.95;95765.03;10359145;28;99322;-71
2022/06/24 18:32:31;;;;;;;2.58;0.30;;;;;;;21.54;52.65;95773.75;10363316;28;100719;-72
2022/06/24 18:37:34;;;;;;;1.15;0.40;;;;;;;21.01;53.83;95781.41;10359810;28;96949;-71
2022/06/24 18:42:39;;;;;;;1.92;0.70;;;;;;;20.53;55.39;95790.97;10362921;28;98432;-71
2022/06/24 18:47:41;;;;;;;;;;;;;;;20.28;54.39;95792.88;10365819;28;97675;-71
2022/06/24 18:52:44;;;;;;;1.15;0.57;;;;;;;19.93;57.32;95796.84;10360256;28;98651;-71
2022/06/24 18:57:49;;;;;;;1.58;0.70;;;;;;;19.50;58.95;95799.41;10351122;28;98636;-70
2022/06/24 19:02:52;;;;;;;1.73;0.90;;;;;;;19.18;60.22;95800.22;10362669;28;96871;-71
2022/06/24 19:07:59;;;;;;;2.25;1.02;;;;;;;19.10;60.25;95808.41;10383548;28;98155;-71
2022/06/24 19:13:04;;;;;;;2.00;1.00;;;;;;;18.88;60.68;95805.25;10368487;28;96876;-71
2022/06/24 19:18:08;;;;;;;1.85;1.00;;;;;;;18.55;61.23;95806.16;10359982;28;98114;-71
2022/06/24 19:23:11;;;;;;;5.10;2.03;;;;;;;18.23;62.29;95808.66;10369485;28;101118;-70
2022/06/24 19:28:15;;;;;;;1.95;0.95;;;;;;;18.08;63.19;95816.00;10362022;28;96916;-71
2022/06/24 19:33:19;;;;;;;2.97;1.10;;;;;;;17.99;62.84;95810.13;10371260;28;96729;-71
2022/06/24 19:38:22;;;;;;;1.65;0.70;;;;;;;17.99;63.67;95818.03;10360353;28;96795;-71
2022/06/24 19:43:29;;;;;;;1.67;0.77;;;;;;;17.87;63.67;95819.69;10359829;28;96771;-71
2022/06/24 19:48:33;;;;;;;1.40;0.50;;;;;;;17.82;63.26;95819.44;10370603;28;97079;-71
2022/06/24 19:53:35;;;;;;;2.60;0.50;;;;;;;17.72;63.35;95818.03;10362778;28;96998;-71
2022/06/24 19:58:40;;;;;;;2.90;1.25;;;;;;;17.54;63.97;95825.72;10355217;28;97432;-69
2022/06/24 20:09:03;;;;;;;3.28;1.30;;;;;;;17.14;65.09;95844.13;10358888;28;97771;-70
2022/06/24 20:14:08;;;;;;;6.45;2.38;;;;;;;17.09;66.25;95850.00;10346089;28;97671;-69
2022/06/24 20:19:11;;;;;;;2.65;0.90;;;;;;;17.03;65.64;95845.50;10363124;28;97765;-67
2022/06/24 20:24:17;;;;;;;1.40;1.00;;;;;;;16.96;66.00;95861.31;10375969;28;101003;-66
2022/06/24 20:29:22;;;;;;;2.00;1.00;;;;;;;16.89;66.45;95860.47;10349061;28;101430;-69
2022/06/24 20:34:25;;;;;;;;;;;;;;;16.80;65.91;95862.47;10359722;28;97326;-67
2022/06/24 20:39:29;;;;;;;3.42;0.82;;;;;;;16.58;67.07;95860.91;10350657;28;98680;-67
2022/06/24 20:44:34;;;;;;;2.38;0.70;;;;;;;16.49;67.61;95867.34;10360234;28;96979;-67
2022/06/24 20:49:37;;;;;;;1.67;0.82;;;;;;;16.43;68.14;95866.28;10355689;28;101046;-68
2022/06/24 20:54:40;;;;;;;3.47;1.30;;;;;;;16.27;68.70;95869.22;10359575;28;97191;-68
2022/06/24 20:59:44;;;;;;;3.38;0.93;;;;;;;16.15;68.74;95868.94;10356501;28;96789;-68
2022/06/24 21:04:47;;;;;;;1.03;0.80;;;;;;;15.99;68.66;95876.13;10370002;28;97765;-68
2022/06/24 21:09:50;;;;;;;0.98;0.50;;;;;;;15.82;68.80;95872.13;10355371;28;96975;-68
2022/06/24 21:14:54;;;;;;;3.90;1.08;;;;;;;15.88;68.92;95877.44;10338767;28;97744;-69
2022/06/24 21:19:57;;;;;;;1.23;0.80;;;;;;;15.73;70.04;95884.59;10370742;28;97710;-69
2022/06/24 21:25:00;;;;;;;1.23;0.70;;;;;;;15.69;69.32;95893.91;10369301;28;98510;-69
2022/06/24 21:30:06;;;;;;;5.00;0.70;;;;;;;15.67;68.68;95890.66;10372712;28;100974;-73
2022/06/24 21:35:10;;;;;;;3.08;0.63;;;;;;;15.66;68.44;95891.63;10378374;28;97251;-69
2022/06/24 21:40:13;;;;;;;3.10;0.85;;;;;;;15.54;68.67;95901.00;10379701;28;96907;-68
2022/06/24 21:45:17;;;;;;;2.05;0.63;;;;;;;15.39;69.72;95907.13;10375205;28;97160;-70
2022/06/24 21:50:20;;;;;;;1.15;0.80;;;;;;;15.09;70.31;95901.91;10358848;28;97308;-69
2022/06/24 21:55:23;;;;;;;1.13;0.50;;;;;;;14.84;71.19;95897.97;10374135;28;98157;-69
2022/06/24 22:00:27;;;;;;;3.97;0.63;;;;;;;14.78;71.20;95898.69;10379178;28;97226;-69
2022/06/24 22:05:30;;;;;;;3.60;0.50;;;;;;;14.86;70.43;95895.97;10371717;28;99142;-69
2022/06/24 22:10:33;;;;;;;4.55;0.77;;;;;;;14.78;70.46;95904.75;10361614;28;96928;-68
2022/06/24 22:15:38;;;;;;;2.00;0.70;;;;;;;14.41;72.30;95900.41;10379936;28;96941;-71
2022/06/24 22:20:41;;;;;;;3.75;0.77;;;;;;;14.28;72.07;95899.19;10373721;28;98803;-69
2022/06/24 22:25:43;;;;;;;4.35;0.73;;;;;;;14.29;71.84;95895.56;10375349;28;96775;-69
2022/06/24 22:30:48;;;;;;;3.92;1.10;;;;;;;14.28;72.41;95896.56;10355605;28;96873;-68
2022/06/24 22:35:51;;;;;;;2.78;0.90;;;;;;;14.17;72.26;95897.00;10370528;28;97964;-68
2022/06/24 22:40:54;;;;;;;3.15;0.80;;;;;;;14.12;72.22;95910.69;10358361;28;98484;-69
2022/06/24 22:45:58;;;;;;;3.40;0.85;;;;;;;14.05;73.08;95906.28;10352997;28;96899;-69
2022/06/24 22:51:06;;;;;;;6.25;0.60;;;;;;;13.87;73.67;95902.16;10361255;28;96877;-68
2022/06/24 22:56:09;;;;;;;1.08;0.77;;;;;;;13.82;73.70;95902.69;10376203;28;97756;-69
2022/06/24 23:01:14;;;;;;;1.33;0.60;;;;;;;13.82;73.95;95910.56;10377862;28;96944;-68
2022/06/24 23:06:17;;;;;;;;;;;;;;;13.65;74.21;95910.88;10366948;28;97025;-70
2022/06/24 23:11:20;;;;;;;1.90;0.55;;;;;;;13.76;73.07;95907.84;10360278;28;96850;-68
2022/06/24 23:16:25;;;;;;;2.80;0.98;;;;;;;13.78;73.99;95916.38;10379892;28;97449;-69
2022/06/24 23:21:28;;;;;;;2.97;0.73;;;;;;;13.70;74.88;95926.91;10371487;28;96758;-68
2022/06/24 23:26:30;;;;;;;3.15;0.82;;;;;;;13.79;75.11;95920.59;10361492;28;96864;-69
2022/06/24 23:31:36;;;;;;;3.58;0.95;;;;;;;13.69;75.01;95923.47;10345061;28;97188;-70
2022/06/24 23:36:40;;;;;;;4.43;0.93;;;;;;;13.59;75.16;95913.19;10383542;28;97168;-69
2022/06/24 23:41:43;;;;;;;2.85;0.80;;;;;;;13.55;75.44;95906.69;10352370;28;97351;-69
2022/06/24 23:46:47;;;;;;;3.13;1.00;;;;;;;13.56;75.22;95900.41;10358519;28;96805;-68
2022/06/24 23:51:50;;;;;;;3.00;1.02;;;;;;;13.40;75.32;95911.03;10354899;28;96924;-68
2022/06/24 23:56:53;;;;;;;2.40;0.98;;;;;;;13.39;75.30;95909.38;10353194;28;98694;-68
